sensor_id;sensor_type;location;lat;lon;timestamp;P1;durP1;ratioP1;P2;durP2;ratioP2
48185;SDS011;33978;47.432;18.916;2022-09-09T00:04:03;2.05;;;1.60;;
48185;SDS011;33978;47.432;18.916;2022-09-09T00:06:32;2.58;;;1.73;;
48185;SDS011;33978;47.432;18.916;2022-09-09T00:09:12;1.92;;;1.50;;
48185;SDS011;33978;47.432;18.916;2022-09-09T00:11:45;1.90;;;1.52;;
48185;SDS011;33978;47.432;18.916;2022-09-09T00:14:20;3.20;;;1.83;;
48185;SDS011;33978;47.432;18.916;2022-09-09T00:16:54;2.00;;;1.70;;
48185;SDS011;33978;47.432;18.916;2022-09-09T00:19:24;2.22;;;1.70;;
48185;SDS011;33978;47.432;18.916;2022-09-09T00:24:38;1.80;;;1.60;;
48185;SDS011;33978;47.432;18.916;2022-09-09T00:27:52;2.42;;;1.52;;
48185;SDS011;33978;47.432;18.916;2022-09-09T00:30:19;2.03;;;1.60;;
48185;SDS011;33978;47.432;18.916;2022-09-09T00:32:50;3.22;;;1.50;;
48185;SDS011;33978;47.432;18.916;2022-09-09T00:35:23;1.73;;;1.40;;
48185;SDS011;33978;47.432;18.916;2022-09-09T00:38:05;2.70;;;1.70;;
48185;SDS011;33978;47.432;18.916;2022-09-09T00:40:45;2.22;;;1.80;;
48185;SDS011;33978;47.432;18.916;2022-09-09T00:43:21;2.12;;;1.80;;
48185;SDS011;33978;47.432;18.916;2022-09-09T00:54:45;2.17;;;1.60;;
48185;SDS011;33978;47.432;18.916;2022-09-09T00:57:22;2.05;;;1.48;;
48185;SDS011;33978;47.432;18.916;2022-09-09T01:00:20;1.75;;;1.40;;
48185;SDS011;33978;47.432;18.916;2022-09-09T01:08:00;2.00;;;1.60;;
48185;SDS011;33978;47.432;18.916;2022-09-09T01:10:37;1.55;;;1.45;;
48185;SDS011;33978;47.432;18.916;2022-09-09T01:13:11;3.05;;;1.83;;
48185;SDS011;33978;47.432;18.916;2022-09-09T01:15:42;1.85;;;1.60;;
48185;SDS011;33978;47.432;18.916;2022-09-09T01:18:12;1.80;;;1.40;;
48185;SDS011;33978;47.432;18.916;2022-09-09T01:26:21;3.30;;;2.00;;
48185;SDS011;33978;47.432;18.916;2022-09-09T01:28:50;2.30;;;1.80;;
48185;SDS011;33978;47.432;18.916;2022-09-09T01:31:23;2.10;;;1.90;;
48185;SDS011;33978;47.432;18.916;2022-09-09T01:33:55;1.70;;;1.52;;
48185;SDS011;33978;47.432;18.916;2022-09-09T01:36:33;3.37;;;1.75;;
48185;SDS011;33978;47.432;18.916;2022-09-09T01:39:05;1.87;;;1.65;;
48185;SDS011;33978;47.432;18.916;2022-09-09T01:41:32;2.45;;;1.70;;
48185;SDS011;33978;47.432;18.916;2022-09-09T01:44:00;3.45;;;1.45;;
48185;SDS011;33978;47.432;18.916;2022-09-09T01:46:29;3.40;;;1.83;;
48185;SDS011;33978;47.432;18.916;2022-09-09T01:48:57;2.20;;;2.00;;
48185;SDS011;33978;47.432;18.916;2022-09-09T01:51:26;1.90;;;1.70;;
48185;SDS011;33978;47.432;18.916;2022-09-09T01:53:55;2.47;;;1.80;;
48185;SDS011;33978;47.432;18.916;2022-09-09T01:56:29;2.08;;;1.80;;
48185;SDS011;33978;47.432;18.916;2022-09-09T02:04:45;1.98;;;1.60;;
48185;SDS011;33978;47.432;18.916;2022-09-09T02:10:13;1.98;;;1.70;;
48185;SDS011;33978;47.432;18.916;2022-09-09T02:12:44;2.17;;;1.87;;
48185;SDS011;33978;47.432;18.916;2022-09-09T02:18:25;2.55;;;2.03;;
48185;SDS011;33978;47.432;18.916;2022-09-09T02:20:56;2.92;;;2.30;;
48185;SDS011;33978;47.432;18.916;2022-09-09T02:23:24;2.12;;;1.77;;
48185;SDS011;33978;47.432;18.916;2022-09-09T02:25:53;2.92;;;1.80;;
48185;SDS011;33978;47.432;18.916;2022-09-09T02:28:23;3.10;;;2.50;;
48185;SDS011;33978;47.432;18.916;2022-09-09T02:30:52;2.15;;;1.67;;
48185;SDS011;33978;47.432;18.916;2022-09-09T02:33:24;2.17;;;1.67;;
48185;SDS011;33978;47.432;18.916;2022-09-09T02:35:52;2.05;;;1.83;;
48185;SDS011;33978;47.432;18.916;2022-09-09T02:38:20;3.87;;;1.83;;
48185;SDS011;33978;47.432;18.916;2022-09-09T02:40:50;2.67;;;1.62;;
48185;SDS011;33978;47.432;18.916;2022-09-09T02:43:19;4.40;;;1.87;;
48185;SDS011;33978;47.432;18.916;2022-09-09T02:46:24;1.95;;;1.70;;
48185;SDS011;33978;47.432;18.916;2022-09-09T02:48:53;2.17;;;1.80;;
48185;SDS011;33978;47.432;18.916;2022-09-09T02:54:13;3.20;;;2.10;;
48185;SDS011;33978;47.432;18.916;2022-09-09T02:56:47;1.80;;;1.65;;
48185;SDS011;33978;47.432;18.916;2022-09-09T02:59:18;2.30;;;2.10;;
48185;SDS011;33978;47.432;18.916;2022-09-09T03:01:46;4.47;;;1.90;;
48185;SDS011;33978;47.432;18.916;2022-09-09T03:04:14;1.90;;;1.70;;
48185;SDS011;33978;47.432;18.916;2022-09-09T03:06:41;2.10;;;1.80;;
48185;SDS011;33978;47.432;18.916;2022-09-09T03:09:10;2.97;;;2.00;;
48185;SDS011;33978;47.432;18.916;2022-09-09T03:11:38;3.33;;;2.03;;
48185;SDS011;33978;47.432;18.916;2022-09-09T03:14:05;2.58;;;2.10;;
48185;SDS011;33978;47.432;18.916;2022-09-09T03:16:34;2.53;;;2.28;;
48185;SDS011;33978;47.432;18.916;2022-09-09T03:19:02;3.50;;;2.62;;
48185;SDS011;33978;47.432;18.916;2022-09-09T03:21:30;2.03;;;1.80;;
48185;SDS011;33978;47.432;18.916;2022-09-09T03:23:58;3.20;;;2.25;;
48185;SDS011;33978;47.432;18.916;2022-09-09T03:26:26;2.72;;;2.08;;
48185;SDS011;33978;47.432;18.916;2022-09-09T03:28:54;5.60;;;2.25;;
48185;SDS011;33978;47.432;18.916;2022-09-09T03:31:22;3.15;;;1.90;;
48185;SDS011;33978;47.432;18.916;2022-09-09T03:33:50;2.75;;;2.17;;
48185;SDS011;33978;47.432;18.916;2022-09-09T03:36:18;2.42;;;2.05;;
48185;SDS011;33978;47.432;18.916;2022-09-09T03:38:45;3.00;;;2.50;;
48185;SDS011;33978;47.432;18.916;2022-09-09T03:41:13;3.67;;;2.70;;
48185;SDS011;33978;47.432;18.916;2022-09-09T03:43:40;3.25;;;2.35;;
48185;SDS011;33978;47.432;18.916;2022-09-09T03:46:09;3.55;;;2.45;;
48185;SDS011;33978;47.432;18.916;2022-09-09T03:48:37;3.15;;;2.30;;
48185;SDS011;33978;47.432;18.916;2022-09-09T03:51:05;3.47;;;2.25;;
48185;SDS011;33978;47.432;18.916;2022-09-09T03:53:33;3.58;;;2.55;;
48185;SDS011;33978;47.432;18.916;2022-09-09T03:56:01;3.15;;;2.53;;
48185;SDS011;33978;47.432;18.916;2022-09-09T03:58:29;2.90;;;2.37;;
48185;SDS011;33978;47.432;18.916;2022-09-09T04:00:58;4.93;;;2.97;;
48185;SDS011;33978;47.432;18.916;2022-09-09T04:03:27;3.60;;;2.58;;
48185;SDS011;33978;47.432;18.916;2022-09-09T04:05:55;3.70;;;2.80;;
48185;SDS011;33978;47.432;18.916;2022-09-09T04:08:24;3.78;;;3.05;;
48185;SDS011;33978;47.432;18.916;2022-09-09T04:10:54;3.35;;;2.60;;
48185;SDS011;33978;47.432;18.916;2022-09-09T04:13:25;3.15;;;2.47;;
48185;SDS011;33978;47.432;18.916;2022-09-09T04:15:55;3.83;;;2.70;;
48185;SDS011;33978;47.432;18.916;2022-09-09T04:18:24;3.33;;;2.60;;
48185;SDS011;33978;47.432;18.916;2022-09-09T04:20:53;3.62;;;2.67;;
48185;SDS011;33978;47.432;18.916;2022-09-09T04:23:22;3.45;;;2.40;;
48185;SDS011;33978;47.432;18.916;2022-09-09T04:25:51;3.70;;;2.62;;
48185;SDS011;33978;47.432;18.916;2022-09-09T04:28:21;3.60;;;3.10;;
48185;SDS011;33978;47.432;18.916;2022-09-09T04:30:50;3.47;;;2.58;;
48185;SDS011;33978;47.432;18.916;2022-09-09T04:33:19;4.25;;;2.33;;
48185;SDS011;33978;47.432;18.916;2022-09-09T04:35:48;3.53;;;2.65;;
48185;SDS011;33978;47.432;18.916;2022-09-09T04:38:17;3.22;;;2.45;;
48185;SDS011;33978;47.432;18.916;2022-09-09T04:40:48;3.45;;;2.53;;
48185;SDS011;33978;47.432;18.916;2022-09-09T04:43:16;3.90;;;2.92;;
48185;SDS011;33978;47.432;18.916;2022-09-09T04:45:49;3.53;;;2.62;;
48185;SDS011;33978;47.432;18.916;2022-09-09T04:48:21;3.92;;;2.85;;
48185;SDS011;33978;47.432;18.916;2022-09-09T04:50:58;4.18;;;2.85;;
48185;SDS011;33978;47.432;18.916;2022-09-09T04:53:27;4.00;;;2.65;;
48185;SDS011;33978;47.432;18.916;2022-09-09T04:56:02;3.67;;;2.90;;
48185;SDS011;33978;47.432;18.916;2022-09-09T04:58:32;4.37;;;3.28;;
48185;SDS011;33978;47.432;18.916;2022-09-09T05:01:03;4.18;;;3.05;;
48185;SDS011;33978;47.432;18.916;2022-09-09T05:03:35;3.28;;;2.70;;
48185;SDS011;33978;47.432;18.916;2022-09-09T05:06:07;3.03;;;2.53;;
48185;SDS011;33978;47.432;18.916;2022-09-09T05:08:37;5.12;;;2.95;;
48185;SDS011;33978;47.432;18.916;2022-09-09T05:11:16;3.50;;;2.65;;
48185;SDS011;33978;47.432;18.916;2022-09-09T05:13:51;3.30;;;2.60;;
48185;SDS011;33978;47.432;18.916;2022-09-09T05:16:20;4.72;;;2.85;;
48185;SDS011;33978;47.432;18.916;2022-09-09T05:18:48;4.90;;;3.08;;
48185;SDS011;33978;47.432;18.916;2022-09-09T05:21:20;4.78;;;3.35;;
48185;SDS011;33978;47.432;18.916;2022-09-09T05:23:48;3.78;;;2.87;;
48185;SDS011;33978;47.432;18.916;2022-09-09T05:26:18;4.43;;;2.87;;
48185;SDS011;33978;47.432;18.916;2022-09-09T05:28:48;4.53;;;3.25;;
48185;SDS011;33978;47.432;18.916;2022-09-09T05:31:16;6.25;;;3.08;;
48185;SDS011;33978;47.432;18.916;2022-09-09T05:33:44;4.65;;;3.30;;
48185;SDS011;33978;47.432;18.916;2022-09-09T05:36:14;3.40;;;2.70;;
48185;SDS011;33978;47.432;18.916;2022-09-09T05:38:47;4.00;;;2.70;;
48185;SDS011;33978;47.432;18.916;2022-09-09T05:41:15;3.65;;;2.75;;
48185;SDS011;33978;47.432;18.916;2022-09-09T05:43:45;4.18;;;2.65;;
48185;SDS011;33978;47.432;18.916;2022-09-09T05:46:18;4.78;;;3.17;;
48185;SDS011;33978;47.432;18.916;2022-09-09T05:48:55;3.78;;;2.92;;
48185;SDS011;33978;47.432;18.916;2022-09-09T05:51:24;4.37;;;3.15;;
48185;SDS011;33978;47.432;18.916;2022-09-09T05:53:55;4.68;;;3.10;;
48185;SDS011;33978;47.432;18.916;2022-09-09T05:56:27;4.10;;;2.87;;
48185;SDS011;33978;47.432;18.916;2022-09-09T05:58:56;4.40;;;3.00;;
48185;SDS011;33978;47.432;18.916;2022-09-09T06:01:25;3.72;;;2.90;;
48185;SDS011;33978;47.432;18.916;2022-09-09T06:03:54;4.05;;;3.00;;
48185;SDS011;33978;47.432;18.916;2022-09-09T06:06:22;3.97;;;2.90;;
48185;SDS011;33978;47.432;18.916;2022-09-09T06:08:54;4.00;;;3.00;;
48185;SDS011;33978;47.432;18.916;2022-09-09T06:11:25;4.25;;;3.37;;
48185;SDS011;33978;47.432;18.916;2022-09-09T06:13:54;4.25;;;3.17;;
48185;SDS011;33978;47.432;18.916;2022-09-09T06:16:22;5.15;;;2.95;;
48185;SDS011;33978;47.432;18.916;2022-09-09T06:18:51;5.20;;;3.17;;
48185;SDS011;33978;47.432;18.916;2022-09-09T06:21:21;4.93;;;3.10;;
48185;SDS011;33978;47.432;18.916;2022-09-09T06:23:52;3.95;;;3.25;;
48185;SDS011;33978;47.432;18.916;2022-09-09T06:26:28;4.35;;;2.83;;
48185;SDS011;33978;47.432;18.916;2022-09-09T06:28:58;3.22;;;2.55;;
48185;SDS011;33978;47.432;18.916;2022-09-09T06:31:27;3.97;;;2.85;;
48185;SDS011;33978;47.432;18.916;2022-09-09T06:33:58;4.18;;;2.70;;
48185;SDS011;33978;47.432;18.916;2022-09-09T06:36:27;3.70;;;2.65;;
48185;SDS011;33978;47.432;18.916;2022-09-09T06:38:56;2.97;;;2.40;;
48185;SDS011;33978;47.432;18.916;2022-09-09T06:41:24;2.97;;;2.37;;
48185;SDS011;33978;47.432;18.916;2022-09-09T06:43:56;3.78;;;2.40;;
48185;SDS011;33978;47.432;18.916;2022-09-09T06:46:27;3.97;;;2.42;;
48185;SDS011;33978;47.432;18.916;2022-09-09T06:48:57;2.60;;;2.10;;
48185;SDS011;33978;47.432;18.916;2022-09-09T06:51:27;2.65;;;2.20;;
48185;SDS011;33978;47.432;18.916;2022-09-09T06:53:57;4.75;;;2.03;;
48185;SDS011;33978;47.432;18.916;2022-09-09T06:56:27;2.92;;;2.22;;
48185;SDS011;33978;47.432;18.916;2022-09-09T06:58:55;2.58;;;2.08;;
48185;SDS011;33978;47.432;18.916;2022-09-09T07:01:26;2.30;;;1.90;;
48185;SDS011;33978;47.432;18.916;2022-09-09T07:03:59;5.95;;;2.50;;
48185;SDS011;33978;47.432;18.916;2022-09-09T07:06:28;2.87;;;2.10;;
48185;SDS011;33978;47.432;18.916;2022-09-09T07:09:04;2.33;;;1.90;;
48185;SDS011;33978;47.432;18.916;2022-09-09T07:11:34;2.53;;;2.10;;
48185;SDS011;33978;47.432;18.916;2022-09-09T07:14:05;3.25;;;2.30;;
48185;SDS011;33978;47.432;18.916;2022-09-09T07:16:34;3.17;;;2.20;;
48185;SDS011;33978;47.432;18.916;2022-09-09T07:19:06;3.33;;;2.30;;
48185;SDS011;33978;47.432;18.916;2022-09-09T07:21:33;2.85;;;2.17;;
48185;SDS011;33978;47.432;18.916;2022-09-09T07:24:01;2.65;;;2.00;;
48185;SDS011;33978;47.432;18.916;2022-09-09T07:26:30;4.62;;;2.37;;
48185;SDS011;33978;47.432;18.916;2022-09-09T07:28:58;3.03;;;2.28;;
48185;SDS011;33978;47.432;18.916;2022-09-09T07:31:27;3.05;;;1.98;;
48185;SDS011;33978;47.432;18.916;2022-09-09T07:34:00;3.10;;;2.22;;
48185;SDS011;33978;47.432;18.916;2022-09-09T07:36:29;2.92;;;2.20;;
48185;SDS011;33978;47.432;18.916;2022-09-09T07:39:04;2.05;;;1.52;;
48185;SDS011;33978;47.432;18.916;2022-09-09T07:44:30;2.78;;;2.00;;
48185;SDS011;33978;47.432;18.916;2022-09-09T07:46:57;1.83;;;1.40;;
48185;SDS011;33978;47.432;18.916;2022-09-09T07:49:25;2.25;;;1.77;;
48185;SDS011;33978;47.432;18.916;2022-09-09T07:51:58;2.20;;;1.77;;
48185;SDS011;33978;47.432;18.916;2022-09-09T07:54:26;1.98;;;1.77;;
48185;SDS011;33978;47.432;18.916;2022-09-09T07:56:54;4.65;;;1.70;;
48185;SDS011;33978;47.432;18.916;2022-09-09T07:59:22;1.50;;;1.40;;
48185;SDS011;33978;47.432;18.916;2022-09-09T08:01:51;2.15;;;1.70;;
48185;SDS011;33978;47.432;18.916;2022-09-09T08:04:23;2.70;;;1.42;;
48185;SDS011;33978;47.432;18.916;2022-09-09T08:06:53;1.40;;;1.25;;
48185;SDS011;33978;47.432;18.916;2022-09-09T08:09:23;1.55;;;1.30;;
48185;SDS011;33978;47.432;18.916;2022-09-09T08:11:54;1.65;;;1.42;;
48185;SDS011;33978;47.432;18.916;2022-09-09T08:14:23;2.22;;;1.73;;
48185;SDS011;33978;47.432;18.916;2022-09-09T08:16:51;2.60;;;1.58;;
48185;SDS011;33978;47.432;18.916;2022-09-09T08:19:21;2.40;;;1.50;;
48185;SDS011;33978;47.432;18.916;2022-09-09T08:21:49;1.92;;;1.45;;
48185;SDS011;33978;47.432;18.916;2022-09-09T08:24:17;1.40;;;1.30;;
48185;SDS011;33978;47.432;18.916;2022-09-09T08:26:47;1.92;;;1.58;;
48185;SDS011;33978;47.432;18.916;2022-09-09T08:29:17;1.67;;;1.40;;
48185;SDS011;33978;47.432;18.916;2022-09-09T08:31:49;1.67;;;1.30;;
48185;SDS011;33978;47.432;18.916;2022-09-09T08:34:20;1.95;;;1.55;;
48185;SDS011;33978;47.432;18.916;2022-09-09T08:36:49;7.25;;;1.45;;
48185;SDS011;33978;47.432;18.916;2022-09-09T08:39:19;1.55;;;1.25;;
48185;SDS011;33978;47.432;18.916;2022-09-09T08:42:04;1.73;;;1.20;;
48185;SDS011;33978;47.432;18.916;2022-09-09T08:47:47;1.27;;;1.00;;
48185;SDS011;33978;47.432;18.916;2022-09-09T08:50:34;1.85;;;1.27;;
48185;SDS011;33978;47.432;18.916;2022-09-09T08:55:53;2.60;;;1.23;;
48185;SDS011;33978;47.432;18.916;2022-09-09T08:58:30;1.23;;;1.10;;
48185;SDS011;33978;47.432;18.916;2022-09-09T09:09:01;1.37;;;1.10;;
48185;SDS011;33978;47.432;18.916;2022-09-09T09:11:44;1.45;;;0.90;;
48185;SDS011;33978;47.432;18.916;2022-09-09T09:16:52;1.10;;;1.00;;
48185;SDS011;33978;47.432;18.916;2022-09-09T09:19:23;1.10;;;1.00;;
48185;SDS011;33978;47.432;18.916;2022-09-09T09:30:17;1.25;;;1.15;;
48185;SDS011;33978;47.432;18.916;2022-09-09T09:33:01;1.33;;;1.08;;
48185;SDS011;33978;47.432;18.916;2022-09-09T09:35:30;1.20;;;1.10;;
48185;SDS011;33978;47.432;18.916;2022-09-09T09:38:01;1.40;;;0.98;;
48185;SDS011;33978;47.432;18.916;2022-09-09T09:40:52;2.00;;;1.17;;
48185;SDS011;33978;47.432;18.916;2022-09-09T09:43:26;1.52;;;1.00;;
48185;SDS011;33978;47.432;18.916;2022-09-09T09:45:57;1.20;;;1.10;;
48185;SDS011;33978;47.432;18.916;2022-09-09T09:48:43;1.65;;;1.00;;
48185;SDS011;33978;47.432;18.916;2022-09-09T09:51:13;0.82;;;0.82;;
48185;SDS011;33978;47.432;18.916;2022-09-09T09:53:43;0.98;;;0.80;;
48185;SDS011;33978;47.432;18.916;2022-09-09T09:56:14;1.15;;;0.80;;
48185;SDS011;33978;47.432;18.916;2022-09-09T10:01:27;1.15;;;0.75;;
48185;SDS011;33978;47.432;18.916;2022-09-09T10:03:58;0.70;;;0.70;;
48185;SDS011;33978;47.432;18.916;2022-09-09T10:06:33;1.40;;;0.95;;
48185;SDS011;33978;47.432;18.916;2022-09-09T10:09:24;0.90;;;0.90;;
48185;SDS011;33978;47.432;18.916;2022-09-09T10:17:23;1.50;;;0.80;;
48185;SDS011;33978;47.432;18.916;2022-09-09T10:20:21;2.00;;;0.70;;
48185;SDS011;33978;47.432;18.916;2022-09-09T10:31:25;1.08;;;0.70;;
48185;SDS011;33978;47.432;18.916;2022-09-09T10:36:46;1.20;;;0.80;;
48185;SDS011;33978;47.432;18.916;2022-09-09T10:39:33;0.75;;;0.75;;
48185;SDS011;33978;47.432;18.916;2022-09-09T10:42:09;1.83;;;0.80;;
48185;SDS011;33978;47.432;18.916;2022-09-09T10:44:42;0.70;;;0.70;;
48185;SDS011;33978;47.432;18.916;2022-09-09T10:47:39;0.93;;;0.80;;
48185;SDS011;33978;47.432;18.916;2022-09-09T10:50:35;0.80;;;0.80;;
48185;SDS011;33978;47.432;18.916;2022-09-09T10:53:35;1.58;;;0.70;;
48185;SDS011;33978;47.432;18.916;2022-09-09T10:56:12;0.70;;;0.70;;
48185;SDS011;33978;47.432;18.916;2022-09-09T10:58:49;0.98;;;0.70;;
48185;SDS011;33978;47.432;18.916;2022-09-09T11:01:27;1.00;;;0.70;;
48185;SDS011;33978;47.432;18.916;2022-09-09T11:04:31;0.70;;;0.70;;
48185;SDS011;33978;47.432;18.916;2022-09-09T11:07:05;0.60;;;0.60;;
48185;SDS011;33978;47.432;18.916;2022-09-09T11:09:40;1.08;;;1.00;;
48185;SDS011;33978;47.432;18.916;2022-09-09T11:12:17;0.60;;;0.60;;
48185;SDS011;33978;47.432;18.916;2022-09-09T11:14:49;0.80;;;0.80;;
48185;SDS011;33978;47.432;18.916;2022-09-09T11:19:50;1.77;;;0.75;;
48185;SDS011;33978;47.432;18.916;2022-09-09T11:22:21;0.73;;;0.70;;
48185;SDS011;33978;47.432;18.916;2022-09-09T11:27:54;0.70;;;0.60;;
48185;SDS011;33978;47.432;18.916;2022-09-09T11:30:32;1.05;;;0.60;;
48185;SDS011;33978;47.432;18.916;2022-09-09T11:33:42;0.70;;;0.70;;
48185;SDS011;33978;47.432;18.916;2022-09-09T11:36:38;0.70;;;0.70;;
48185;SDS011;33978;47.432;18.916;2022-09-09T11:44:40;0.70;;;0.70;;
48185;SDS011;33978;47.432;18.916;2022-09-09T11:47:19;0.68;;;0.68;;
48185;SDS011;33978;47.432;18.916;2022-09-09T11:52:43;0.90;;;0.70;;
48185;SDS011;33978;47.432;18.916;2022-09-09T12:00:36;0.80;;;0.75;;
48185;SDS011;33978;47.432;18.916;2022-09-09T12:03:04;1.10;;;0.90;;
48185;SDS011;33978;47.432;18.916;2022-09-09T12:05:50;0.70;;;0.70;;
48185;SDS011;33978;47.432;18.916;2022-09-09T12:08:20;0.75;;;0.75;;
48185;SDS011;33978;47.432;18.916;2022-09-09T12:10:54;0.93;;;0.90;;
48185;SDS011;33978;47.432;18.916;2022-09-09T12:13:24;1.95;;;0.80;;
48185;SDS011;33978;47.432;18.916;2022-09-09T12:15:53;0.80;;;0.80;;
48185;SDS011;33978;47.432;18.916;2022-09-09T12:18:25;0.80;;;0.70;;
48185;SDS011;33978;47.432;18.916;2022-09-09T12:21:06;1.67;;;0.82;;
48185;SDS011;33978;47.432;18.916;2022-09-09T12:23:50;0.80;;;0.80;;
48185;SDS011;33978;47.432;18.916;2022-09-09T12:26:31;0.80;;;0.70;;
48185;SDS011;33978;47.432;18.916;2022-09-09T12:31:33;0.80;;;0.80;;
48185;SDS011;33978;47.432;18.916;2022-09-09T12:34:15;0.80;;;0.80;;
48185;SDS011;33978;47.432;18.916;2022-09-09T12:36:47;0.70;;;0.70;;
48185;SDS011;33978;47.432;18.916;2022-09-09T12:42:21;0.80;;;0.80;;
48185;SDS011;33978;47.432;18.916;2022-09-09T12:50:04;1.00;;;0.80;;
48185;SDS011;33978;47.432;18.916;2022-09-09T12:52:38;2.05;;;0.93;;
48185;SDS011;33978;47.432;18.916;2022-09-09T12:55:06;0.80;;;0.80;;
48185;SDS011;33978;47.432;18.916;2022-09-09T12:57:36;0.80;;;0.80;;
48185;SDS011;33978;47.432;18.916;2022-09-09T13:00:06;1.27;;;0.90;;
48185;SDS011;33978;47.432;18.916;2022-09-09T13:02:45;0.93;;;0.80;;
48185;SDS011;33978;47.432;18.916;2022-09-09T13:05:20;0.85;;;0.80;;
48185;SDS011;33978;47.432;18.916;2022-09-09T13:07:52;0.80;;;0.80;;
48185;SDS011;33978;47.432;18.916;2022-09-09T13:10:30;0.80;;;0.80;;
48185;SDS011;33978;47.432;18.916;2022-09-09T13:13:16;0.73;;;0.70;;
48185;SDS011;33978;47.432;18.916;2022-09-09T13:15:52;0.77;;;0.77;;
48185;SDS011;33978;47.432;18.916;2022-09-09T13:18:25;0.70;;;0.70;;
48185;SDS011;33978;47.432;18.916;2022-09-09T13:20:54;1.20;;;1.10;;
48185;SDS011;33978;47.432;18.916;2022-09-09T13:23:31;0.70;;;0.70;;
48185;SDS011;33978;47.432;18.916;2022-09-09T13:28:33;0.80;;;0.80;;
48185;SDS011;33978;47.432;18.916;2022-09-09T13:31:03;1.00;;;0.80;;
48185;SDS011;33978;47.432;18.916;2022-09-09T13:33:37;0.82;;;0.82;;
48185;SDS011;33978;47.432;18.916;2022-09-09T13:36:09;0.77;;;0.77;;
48185;SDS011;33978;47.432;18.916;2022-09-09T13:38:56;1.23;;;0.70;;
48185;SDS011;33978;47.432;18.916;2022-09-09T13:41:32;0.80;;;0.80;;
48185;SDS011;33978;47.432;18.916;2022-09-09T13:44:01;0.93;;;0.80;;
48185;SDS011;33978;47.432;18.916;2022-09-09T13:46:34;0.70;;;0.70;;
48185;SDS011;33978;47.432;18.916;2022-09-09T13:54:06;0.80;;;0.70;;
48185;SDS011;33978;47.432;18.916;2022-09-09T13:56:37;0.85;;;0.80;;
48185;SDS011;33978;47.432;18.916;2022-09-09T13:59:08;0.70;;;0.70;;
48185;SDS011;33978;47.432;18.916;2022-09-09T14:01:37;0.85;;;0.80;;
48185;SDS011;33978;47.432;18.916;2022-09-09T14:04:05;0.80;;;0.80;;
48185;SDS011;33978;47.432;18.916;2022-09-09T14:06:33;1.02;;;0.80;;
48185;SDS011;33978;47.432;18.916;2022-09-09T14:09:09;0.80;;;0.80;;
48185;SDS011;33978;47.432;18.916;2022-09-09T14:11:38;0.70;;;0.70;;
48185;SDS011;33978;47.432;18.916;2022-09-09T14:14:05;0.60;;;0.60;;
48185;SDS011;33978;47.432;18.916;2022-09-09T14:16:33;0.90;;;0.90;;
48185;SDS011;33978;47.432;18.916;2022-09-09T14:19:00;1.60;;;0.80;;
48185;SDS011;33978;47.432;18.916;2022-09-09T14:21:28;0.93;;;0.70;;
48185;SDS011;33978;47.432;18.916;2022-09-09T14:23:55;0.88;;;0.60;;
48185;SDS011;33978;47.432;18.916;2022-09-09T14:26:25;0.90;;;0.80;;
48185;SDS011;33978;47.432;18.916;2022-09-09T14:28:53;0.70;;;0.70;;
48185;SDS011;33978;47.432;18.916;2022-09-09T14:31:22;0.75;;;0.70;;
48185;SDS011;33978;47.432;18.916;2022-09-09T14:33:50;1.05;;;0.90;;
48185;SDS011;33978;47.432;18.916;2022-09-09T14:36:18;1.05;;;0.70;;
48185;SDS011;33978;47.432;18.916;2022-09-09T14:38:45;0.93;;;0.73;;
48185;SDS011;33978;47.432;18.916;2022-09-09T14:41:14;0.77;;;0.70;;
48185;SDS011;33978;47.432;18.916;2022-09-09T14:43:46;0.90;;;0.82;;
48185;SDS011;33978;47.432;18.916;2022-09-09T14:46:15;0.70;;;0.70;;
48185;SDS011;33978;47.432;18.916;2022-09-09T14:48:43;0.70;;;0.70;;
48185;SDS011;33978;47.432;18.916;2022-09-09T14:51:14;2.12;;;0.80;;
48185;SDS011;33978;47.432;18.916;2022-09-09T14:53:43;0.85;;;0.70;;
48185;SDS011;33978;47.432;18.916;2022-09-09T14:56:15;0.70;;;0.70;;
48185;SDS011;33978;47.432;18.916;2022-09-09T14:58:44;0.70;;;0.70;;
48185;SDS011;33978;47.432;18.916;2022-09-09T15:01:12;0.98;;;0.88;;
48185;SDS011;33978;47.432;18.916;2022-09-09T15:03:42;0.77;;;0.77;;
48185;SDS011;33978;47.432;18.916;2022-09-09T15:06:11;1.30;;;0.80;;
48185;SDS011;33978;47.432;18.916;2022-09-09T15:08:40;2.05;;;1.00;;
48185;SDS011;33978;47.432;18.916;2022-09-09T15:11:09;1.20;;;0.70;;
48185;SDS011;33978;47.432;18.916;2022-09-09T15:13:38;0.75;;;0.75;;
48185;SDS011;33978;47.432;18.916;2022-09-09T15:16:07;1.60;;;0.90;;
48185;SDS011;33978;47.432;18.916;2022-09-09T15:18:36;0.80;;;0.80;;
48185;SDS011;33978;47.432;18.916;2022-09-09T15:21:03;0.93;;;0.82;;
48185;SDS011;33978;47.432;18.916;2022-09-09T15:23:32;2.17;;;0.80;;
48185;SDS011;33978;47.432;18.916;2022-09-09T15:26:00;0.70;;;0.70;;
48185;SDS011;33978;47.432;18.916;2022-09-09T15:28:27;0.95;;;0.80;;
48185;SDS011;33978;47.432;18.916;2022-09-09T15:30:55;0.93;;;0.82;;
48185;SDS011;33978;47.432;18.916;2022-09-09T15:33:23;0.73;;;0.70;;
48185;SDS011;33978;47.432;18.916;2022-09-09T15:35:51;0.68;;;0.68;;
48185;SDS011;33978;47.432;18.916;2022-09-09T15:38:19;1.30;;;0.80;;
48185;SDS011;33978;47.432;18.916;2022-09-09T15:40:52;1.52;;;0.95;;
48185;SDS011;33978;47.432;18.916;2022-09-09T15:43:21;0.70;;;0.70;;
48185;SDS011;33978;47.432;18.916;2022-09-09T15:45:51;0.93;;;0.70;;
48185;SDS011;33978;47.432;18.916;2022-09-09T15:48:30;1.12;;;0.80;;
48185;SDS011;33978;47.432;18.916;2022-09-09T15:51:02;0.70;;;0.70;;
48185;SDS011;33978;47.432;18.916;2022-09-09T15:53:45;0.93;;;0.90;;
48185;SDS011;33978;47.432;18.916;2022-09-09T15:56:13;0.70;;;0.70;;
48185;SDS011;33978;47.432;18.916;2022-09-09T15:58:40;0.88;;;0.70;;
48185;SDS011;33978;47.432;18.916;2022-09-09T16:01:09;0.65;;;0.62;;
48185;SDS011;33978;47.432;18.916;2022-09-09T16:03:41;0.82;;;0.77;;
48185;SDS011;33978;47.432;18.916;2022-09-09T16:06:12;1.15;;;0.80;;
48185;SDS011;33978;47.432;18.916;2022-09-09T16:08:41;1.08;;;0.98;;
48185;SDS011;33978;47.432;18.916;2022-09-09T16:11:12;13.32;;;11.20;;
48185;SDS011;33978;47.432;18.916;2022-09-09T16:16:18;7.20;;;4.35;;
48185;SDS011;33978;47.432;18.916;2022-09-09T16:18:50;4.00;;;2.83;;
48185;SDS011;33978;47.432;18.916;2022-09-09T16:21:32;4.20;;;2.87;;
48185;SDS011;33978;47.432;18.916;2022-09-09T16:24:02;4.10;;;2.50;;
48185;SDS011;33978;47.432;18.916;2022-09-09T16:26:31;2.75;;;1.75;;
48185;SDS011;33978;47.432;18.916;2022-09-09T16:29:00;3.42;;;1.40;;
48185;SDS011;33978;47.432;18.916;2022-09-09T16:31:28;1.48;;;1.20;;
48185;SDS011;33978;47.432;18.916;2022-09-09T16:33:57;2.50;;;1.42;;
48185;SDS011;33978;47.432;18.916;2022-09-09T16:36:25;1.67;;;1.02;;
48185;SDS011;33978;47.432;18.916;2022-09-09T16:39:03;2.78;;;1.20;;
48185;SDS011;33978;47.432;18.916;2022-09-09T16:41:32;6.35;;;3.42;;
48185;SDS011;33978;47.432;18.916;2022-09-09T16:44:01;7.05;;;4.60;;
48185;SDS011;33978;47.432;18.916;2022-09-09T16:46:31;3.40;;;2.08;;
48185;SDS011;33978;47.432;18.916;2022-09-09T16:49:01;2.10;;;1.50;;
48185;SDS011;33978;47.432;18.916;2022-09-09T16:51:31;3.25;;;2.00;;
48185;SDS011;33978;47.432;18.916;2022-09-09T16:54:00;3.17;;;2.47;;
48185;SDS011;33978;47.432;18.916;2022-09-09T16:56:30;2.05;;;1.45;;
48185;SDS011;33978;47.432;18.916;2022-09-09T16:59:01;1.45;;;1.17;;
48185;SDS011;33978;47.432;18.916;2022-09-09T17:01:29;2.70;;;1.35;;
48185;SDS011;33978;47.432;18.916;2022-09-09T17:04:00;1.10;;;0.98;;
48185;SDS011;33978;47.432;18.916;2022-09-09T17:06:29;3.08;;;1.40;;
48185;SDS011;33978;47.432;18.916;2022-09-09T17:08:58;2.58;;;1.65;;